Pablo Herrero

Chefscout - Gijón
22 Apr 2027
Donnerstag
Verarbeitung

Persönlichkeit

Anpassungsfähigkeit (1) Ehrgeiz (3) Kontroverse (3) Loyalität (9) Druck (5) Professionalität (13) Fairness (18) Temperament (18)

Profil

Trainerstil Demokratisch
Lizenz Nationale A
Entschlossenheit 11
Menschenführung 6
Motivation 8
Disziplin 7
Arbeitszufriedenheit
96%
Ermüdung
0%
Rolle Chefscout
Gehalt 43.0K p/W
Vertrag 14.03.2028

Leistung

Verhalten Gut
Trainingseffektivität
29%
Spielerentwicklung
35%
Verletzungsprävention
65%
Taktische Umsetzung
20%

Letzte Ereignisse

Spieler begutachtet jetzt
Spieler begutachtet jetzt
Spieler begutachtet jetzt
Nahm an einer Scouting-Besprechung teil jetzt
Empfahl ein Transferziel jetzt
Empfahl ein Transferziel jetzt
Empfahl ein Transferziel jetzt
Nahm an einer Scouting-Besprechung teil jetzt

Aktuell beobachtet

208
Spieler Verein Status Fähigkeit Vertrauen Beobachtet Zuletzt beobachtet Letzte Stimme
Omar El Hilali Espanyol Aktiv 146 / 146 40% 4 20.04.2027 -
Shea Charles Southampton Aktiv 138 / 148 40% 1 20.04.2027 -
Darlin Yongwa Norwich City Aktiv 123 / 128 40% 1 20.04.2027 -
Othmane Maamma Watford Aktiv 132 / 120 40% 3 19.04.2027 -
Ryan Sessegnon Fulham Aktiv 149 / 142 40% 3 19.04.2027 -
Adrià Altimira Deportivo La Coruña Aktiv 127 / 121 40% 2 19.04.2027 -
Ethan Mbappé LOSC Lille Aktiv 137 / 127 40% 3 19.04.2027 -
Ez Abde Girona Aktiv 152 / 148 40% 1 19.04.2027 -
Mikkel Damsgaard Brentford Aktiv 146 / 145 40% 1 19.04.2027 -
Julio Enciso Ipswich Town Aktiv 141 / 133 40% 1 19.04.2027 -
Olívio Tomé Benfica Aktiv 114 / 111 40% 1 19.04.2027 -
Pol Lozano Espanyol Aktiv 141 / 124 40% 5 17.04.2027 -
Tani Oluwaseyi Villarreal Aktiv 139 / 152 40% 6 16.04.2027 -
Diego Lainez Tigres Aktiv 138 / 134 40% 1 16.04.2027 -
Víctor Guzmán Monterrey Aktiv 139 / 148 40% 3 15.04.2027 -
Fidel Ambríz Monterrey Aktiv 124 / 111 40% 3 15.04.2027 -
Yusi Alavés Aktiv 123 / 131 40% 4 13.04.2027 -
Ousmane Diomande Nottingham Forest Aktiv 156 / 144 40% 3 13.04.2027 -
Williams Manyama SuperSport United Aktiv 115 / 103 40% 2 13.04.2027 -
Christos Mouzakitis Hull City Aktiv 130 / 143 40% 2 13.04.2027 -
Pablo Ramón Racing Santander Aktiv 131 / 119 40% 2 13.04.2027 -
Keagan Tau Ajax Cape Town Aktiv 98 / 81 40% 1 13.04.2027 -
Kevin Vazquez Cruz Azul Aktiv 129 / 159 40% 12 12.04.2027 -
Welington Southampton Aktiv 136 / 127 40% 2 12.04.2027 -
Belal Ateya Al Ahly Aktiv 104 / 103 40% 1 12.04.2027 -
Matías Gómez Granada Aktiv 114 / 114 40% 3 10.04.2027 -
Fran García Betis Aktiv 157 / 161 40% 2 10.04.2027 -
Diego Pampín Granada Aktiv 119 / 123 40% 1 10.04.2027 -
Ernie Weaver AFC Wimbledon Aktiv 108 / 111 40% 1 10.04.2027 -
Pedro Vite Pumas UNAM Aktiv 117 / 140 40% 3 09.04.2027 -
Bojan Kovačević Cádiz Aktiv 125 / 132 40% 1 09.04.2027 -
Warren Zaïre-Emery Paris Saint-Germain Aktiv 159 / 151 40% 5 08.04.2027 -
Abel Bretones Osasuna Aktiv 144 / 139 40% 3 08.04.2027 -
Aarón Mejía Tijuana Aktiv 123 / 129 40% 5 08.04.2027 -
Martim Cunha Porto Aktiv 96 / 114 40% 1 08.04.2027 -
Joel McGregor Swindon Town Aktiv 87 / 85 40% 1 08.04.2027 -
Ramón Juárez Club America Aktiv 134 / 141 40% 4 07.04.2027 -
Adam Wharton Crystal Palace Aktiv 156 / 154 40% 2 07.04.2027 -
Florentino Luís Ipswich Town Aktiv 142 / 134 40% 2 06.04.2027 -
Quinten Timber Crystal Palace Aktiv 145 / 144 40% 2 06.04.2027 -
Álex Lizancos Burgos Aktiv 129 / 118 40% 1 06.04.2027 -
Christ Inao Oulaï Fiorentina Aktiv 136 / 143 40% 1 06.04.2027 -
Urko González Espanyol Aktiv 132 / 125 40% 3 05.04.2027 -
Ilaix Moriba Celta Aktiv 148 / 157 40% 3 05.04.2027 -
Zane Albarus Cambridge United Aktiv 94 / 100 40% 1 05.04.2027 -
Ibrahim Maza Bayer Leverkusen Aktiv 142 / 157 40% 1 05.04.2027 -
Davide Bartesaghi AC Milan Aktiv 129 / 139 40% 1 05.04.2027 -
Georginio Rutter Brighton Aktiv 145 / 155 40% 3 04.04.2027 -
Ozziel Herrera Tigres Aktiv 135 / 129 40% 11 04.04.2027 -
Emi Rodriguez Leon Aktiv 117 / 124 40% 1 04.04.2027 -
Rhys Walters Port Vale Aktiv 95 / 106 40% 1 02.04.2027 -
Yehor Yarmoliuk Brentford Aktiv 147 / 149 40% 3 01.04.2027 -
Izan Merino Málaga Aktiv 127 / 124 40% 2 31.03.2027 -
Joe Knight Stevenage Aktiv 104 / 99 40% 1 31.03.2027 -
Lucas Jetten Cambuur Aktiv 104 / 112 40% 1 31.03.2027 -
Eduardo Dos Santos Veracruz Aktiv 115 / 99 40% 1 30.03.2027 -
Jayden Luker Barnet Aktiv 96 / 98 40% 1 30.03.2027 -
Benjamin Tsivanyo Aduana Stars Aktiv 90 / 76 40% 1 30.03.2027 -
Lovro Zvonarek Estrela da Amadora Aktiv 120 / 121 40% 1 29.03.2027 -
Lander Astiazarán Real Sociedad Bericht bereit 103 / 107 67% 2 27.03.2027 -
Eliás Montiel Pachuca Aktiv 120 / 117 40% 3 27.03.2027 -
Yael Padilla Tijuana Aktiv 101 / 104 40% 3 23.03.2027 -
Ethan Galbraith Swansea City Aktiv 135 / 128 40% 1 23.03.2027 -
Franco Romero Toluca Aktiv 130 / 128 40% 1 23.03.2027 -
Tiago Santos LOSC Lille Aktiv 148 / 131 40% 1 23.03.2027 -
Jackson Porozo Tijuana Aktiv 126 / 132 40% 1 21.03.2027 -
Erik Lira Cruz Azul Aktiv 145 / 116 40% 3 20.03.2027 -
Richard Ledezma Guadalajara Aktiv 145 / 155 40% 3 20.03.2027 -
Rômulo Tigres Aktiv 123 / 112 40% 2 19.03.2027 -
Rocco Vata Watford Aktiv 116 / 120 40% 1 19.03.2027 -
Daijiro Chirino Almería Aktiv 135 / 136 40% 1 19.03.2027 -
Jan Virgili Club Brugge Aktiv 134 / 131 40% 5 17.03.2027 -
Oscar Schwartau Norwich City Aktiv 120 / 129 40% 1 17.03.2027 -
Tiago Freitas Benfica Aktiv 108 / 108 40% 1 16.03.2027 -
Callum Doyle Wrexham Aktiv 132 / 138 40% 1 14.03.2027 -
Jonás Luna Santa Clara Aktiv 118 / 126 40% 5 13.03.2027 -
Pablo Monroy Pumas UNAM Aktiv 124 / 135 40% 2 11.03.2027 -
Aaron Hickey Brentford Aktiv 140 / 133 40% 1 11.03.2027 -
Santiago Simón Toluca Aktiv 128 / 132 40% 1 10.03.2027 -
Samir El Mourabet RC Strasbourg Aktiv 121 / 122 40% 1 10.03.2027 -
Antoni Milambo Brentford Aktiv 139 / 135 40% 1 10.03.2027 -
James Dornelly Peterborough United Aktiv 98 / 104 40% 1 10.03.2027 -
Jesús Orozco Chiquete Cruz Azul Aktiv 122 / 123 40% 3 07.03.2027 -
Mandla Erasmus SuperSport United Aktiv 128 / 125 40% 3 06.03.2027 -
Matt O'Riley Brighton Aktiv 151 / 133 40% 1 05.03.2027 -
Sergio Arribas Almería Aktiv 139 / 142 40% 1 05.03.2027 -
Efraín Álvarez Guadalajara Aktiv 130 / 140 40% 5 04.03.2027 -
Tomás González Piast Aktiv 118 / 130 40% 7 04.03.2027 -
Roberto Fernández Braga Aktiv 138 / 145 40% 2 04.03.2027 -
Igor Jesus Nottingham Forest Aktiv 143 / 140 40% 5 03.03.2027 -
Marezi Portsmouth Aktiv 119 / 120 40% 1 03.03.2027 -
Yousef Salech Cardiff City Aktiv 125 / 137 40% 4 01.03.2027 -
Mandla Mahlangu Ajax Cape Town Aktiv 102 / 86 40% 2 01.03.2027 -
Thulani Erasmus Platinum Stars Aktiv 110 / 94 40% 1 01.03.2027 -
Thiago Brentford Aktiv 153 / 157 40% 4 28.02.2027 -
João Félix Olympiacos Aktiv 158 / 154 40% 1 28.02.2027 -
Isaac Romero Sevilla Aktiv 145 / 150 40% 1 27.02.2027 -
Andrés Martín Racing Santander Aktiv 132 / 148 40% 8 26.02.2027 -
Luis Vázquez Birmingham Aktiv 127 / 118 40% 3 26.02.2027 -
Aaron Connolly Leyton Orient Aktiv 124 / 125 40% 2 26.02.2027 -
Senny Mayulu Paris Saint-Germain Aktiv 139 / 141 40% 1 26.02.2027 -
Jorge Pascual Granada Aktiv 139 / 138 40% 3 24.02.2027 Beobachten
Adrián Niño Málaga Aktiv 126 / 124 40% 2 24.02.2027 -
Duk Atlas Aktiv 123 / 124 40% 6 23.02.2027 -
Kwame Opoku Asante Kotoko Aktiv 110 / 99 40% 2 23.02.2027 -
Brennan Johnson Everton Aktiv 139 / 142 40% 1 22.02.2027 -
Abel Ruiz Girona Aktiv 144 / 149 40% 1 22.02.2027 -
Evanilson Bournemouth Aktiv 156 / 141 40% 4 21.02.2027 -
Malick Fofana Sunderland Aktiv 140 / 150 40% 3 21.02.2027 -
Bamba Dieng Crvena Zvezda Aktiv 126 / 121 40% 2 21.02.2027 -
Fotis Ioannidis Rio Ave Aktiv 135 / 138 40% 3 21.02.2027 Beobachten
Aune Heggebø West Bromwich Albion Aktiv 132 / 122 40% 2 18.02.2027 -
Moussa Diakité Cádiz Aktiv 118 / 120 40% 1 17.02.2027 -
Max Bird Birmingham Aktiv 134 / 121 40% 1 17.02.2027 -
Guillermo Sanchez Veracruz Aktiv 105 / 115 40% 1 16.02.2027 -
Pablo García Racing Santander Aktiv 120 / 126 40% 1 16.02.2027 -
Razvan Balasa Crvena Zvezda Aktiv 154 / 125 40% 2 14.02.2027 -
Dango Ouattara Brentford Aktiv 143 / 143 40% 3 12.02.2027 -
Adnan Courtois KV Oostende Aktiv 133 / 126 40% 4 10.02.2027 -
Toni Fruk KV Mechelen Bericht bereit 136 / 125 89% 3 10.02.2027 -
Joaquin Seys Club Brugge Aktiv 130 / 134 40% 1 10.02.2027 -
Jackson Muleka Konyaspor Aktiv 136 / 114 40% 2 08.02.2027 -
Etiosa Ighodaro Kaizer Chiefs Aktiv 122 / 123 40% 1 08.02.2027 -
Diego López Rayo Vallecano Aktiv 143 / 145 40% 1 07.02.2027 -
Morgan Whittaker Middlesbrough Aktiv 136 / 135 40% 2 05.02.2027 -
Alejandro Gómez Tijuana Aktiv 116 / 123 40% 1 05.02.2027 -
Jesús Vázquez Valencia Aktiv 139 / 121 40% 1 05.02.2027 -
Javi Rodríguez Celta Aktiv 154 / 165 40% 1 05.02.2027 -
Israel Reyes CSKA Moscow Aktiv 146 / 133 40% 2 04.02.2027 -
Ilay Camara Anderlecht Aktiv 135 / 138 40% 1 03.02.2027 -
Ousmane Camara Castellón Aktiv 130 / 122 40% 5 01.02.2027 -
Juan Cruz Martins Jihlava Aktiv 105 / 102 40% 2 01.02.2027 -
Mandla Mahlangu Ajax Cape Town Verloren 117 / 94 40% 2 25.01.2027 -
Rubén Sobrino Cultural Leonesa Bericht bereit 116 / 130 76% 1 25.01.2027 -
Tom Cannon Sheffield United Aktiv 123 / 130 40% 1 11.01.2027 -
David Cordova Atletico Venezuela Verhandlung 91 / 78 40% 2 06.01.2027 -
Giovanni Stellato Guidonia Montecelio Aktiv 81 / 99 40% 1 06.01.2027 -
Konstantin Tyukavin Inter Verhandlung 132 / 133 66% 1 01.01.2027 -
Nicolás Fernández Mercau Shakhtar Bericht bereit 134 / 134 67% 1 01.01.2027 -
José Antonio De la Rosa Cádiz Bericht bereit 115 / 130 76% 1 01.01.2027 -
Lisandro Tejada San Martín SJ Aktiv 83 / 96 40% 1 01.01.2027 -
Rayane Bounida Ajax Aktiv 128 / 140 40% 1 30.12.2026 -
Germán Valera Elche Aktiv 133 / 149 40% 3 28.12.2026 -
Themba Ngcobo SuperSport United Aktiv 128 / 131 40% 4 27.12.2026 -
Ferran Jutglà Celta Aktiv 137 / 149 40% 4 26.12.2026 -
Mfundo Vilakazi Kaizer Chiefs Aktiv 104 / 110 40% 1 25.12.2026 -
Hakim Sulemana Medeama Aktiv 103 / 121 40% 1 25.12.2026 -
Charles De Ketelaere Atalanta Aktiv 159 / 165 40% 2 22.12.2026 -
Joaquín Panichelli Le Havre AC Aktiv 142 / 146 40% 1 20.12.2026 -
Giacomo Raspadori Atalanta Aktiv 154 / 157 40% 2 18.12.2026 -
Bobby Clark Derby County Aktiv 115 / 133 40% 1 14.12.2026 -
Joel Orlando Almagro Aktiv 114 / 121 40% 2 13.12.2026 -
Diego Gaitán Maipú Aktiv 103 / 129 40% 1 13.12.2026 -
Ramiro Ruiz Rodríguez Atlético Tucumán Aktiv 125 / 108 40% 5 10.12.2026 -
Jonathan Dubasin Osasuna Aktiv 139 / 134 40% 2 10.12.2026 -
Tommy Conway Middlesbrough Aktiv 126 / 135 40% 1 08.12.2026 -
Ruben van Bommel Ferencvaros Aktiv 130 / 132 40% 1 06.12.2026 -
Ignacio Lago Colón Aktiv 116 / 107 40% 1 05.12.2026 -
Agustín Módica Gimnasia y Esgrima Aktiv 119 / 114 40% 1 03.12.2026 -
Alexander Díaz Deportivo Riestra Aktiv 125 / 110 40% 3 02.12.2026 -
Urko Izeta Cádiz Aktiv 126 / 116 40% 2 02.12.2026 -
Alexis Cuello San Lorenzo Aktiv 126 / 143 40% 4 28.11.2026 -
Wilson Isidor Sunderland Aktiv 140 / 135 40% 1 27.11.2026 -
Rômulo Tigres Verloren 123 / 141 40% 2 26.11.2026 -
Tyler Adams Bournemouth Aktiv 147 / 160 40% 1 26.11.2026 -
George Hirst Stoke City Aktiv 138 / 120 40% 1 25.11.2026 -
Manuel Ospina Cortulua Aktiv 120 / 142 40% 2 24.11.2026 -
Samuel Lucero Defensa y Justicia Aktiv 111 / 132 40% 1 20.11.2026 -
Ethan Williams Peterborough United Aktiv 113 / 122 40% 2 06.11.2026 -
Patrick Preciado Deportivo Pasto Aktiv 104 / 115 40% 1 06.11.2026 -
Nicolò Tresoldi Club Brugge Aktiv 128 / 129 40% 1 04.11.2026 -
Lorent Tolaj Plymouth Argyle Aktiv 120 / 118 40% 1 03.11.2026 -
Arda Güler Real Madrid Aktiv 152 / 160 40% 1 03.11.2026 -
Tomás Parmo Independiente Aktiv 103 / 109 40% 1 03.11.2026 -
Rayan Bournemouth Aktiv 132 / 136 40% 1 03.11.2026 -
Santiago Sala Güemes Aktiv 102 / 121 40% 4 01.11.2026 -
Juan Cruz Meza River Plate Aktiv 99 / 128 40% 1 01.11.2026 -
Mauro Valiente Estudiantes Aktiv 119 / 133 40% 1 28.10.2026 -
Tristan Degreef Anderlecht Aktiv 129 / 127 40% 1 28.10.2026 -
Bautista Carboni Defensores Unidos Aktiv 98 / 128 40% 1 28.10.2026 -
Diego Porcel Argentinos Juniors Aktiv 121 / 141 40% 1 27.10.2026 -
Mateo Garavito Deportivo Pasto Aktiv 124 / 114 40% 2 22.10.2026 -
Jermein Peña Junior Aktiv 126 / 131 40% 1 22.10.2026 -
José Castillo Guadalajara Aktiv 113 / 117 40% 1 21.10.2026 -
José Ortiz Atletico Bucaramanga Aktiv 114 / 113 40% 1 19.10.2026 -
Gavi Barcelona Aktiv 161 / 151 40% 1 19.10.2026 -
Eric Meza Estudiantes Aktiv 131 / 126 40% 1 19.10.2026 -
Juan Manuel Zapata Envigado Aktiv 123 / 99 40% 2 18.10.2026 -
Leandro Lozano Boca Juniors Aktiv 133 / 119 40% 1 18.10.2026 -
Omar Campos Cruz Azul Aktiv 117 / 115 40% 1 18.10.2026 -
Nicolás Cordero Aldosivi Aktiv 112 / 124 40% 2 17.10.2026 -
Juan Rocca Gimnasia y Tiro Aktiv 111 / 99 40% 1 17.10.2026 -
César Ibáñez Huracán Aktiv 125 / 127 40% 1 16.10.2026 -
Luca Martínez Dupuy Godoy Cruz Aktiv 121 / 113 40% 1 14.10.2026 -
Bénie Traoré New York City Aktiv 131 / 138 40% 2 13.10.2026 -
Martín Garay Tigre Aktiv 111 / 114 40% 1 11.10.2026 -
Adalberto Carrasquilla Pumas UNAM Aktiv 123 / 127 40% 1 10.10.2026 -
Matías Sosa Arsenal Aktiv 110 / 107 40% 1 08.10.2026 -
Rafael Navarro St. Louis CITY SC Aktiv 126 / 124 40% 1 08.10.2026 -
Oscar Salomón Newell's Old Boys Aktiv 122 / 142 40% 1 07.10.2026 -
Nicolás Fonseca Leon Aktiv 122 / 134 40% 1 07.10.2026 -
Sebastián Cocimano Nueva Chicago Aktiv 122 / 106 40% 1 06.10.2026 -
Luis Montilla San Telmo Aktiv 76 / 102 40% 2 31.08.2026 -
Iván Alejo Valladolid Aktiv 121 / 125 76% 1 31.08.2026 -
Mao Hosoya Sagan Tosu Aktiv 134 / 135 67% 1 17.08.2026 Befürworten
Federico Bonini Almería Aktiv 126 / 125 76% 1 17.08.2026 Befürworten
Agustín Olavarría Colon Aktiv 81 / 85 40% 1 10.08.2026 -
Salvi Sánchez Ceuta Aktiv 125 / 124 76% 1 03.08.2026 Befürworten